Time;durP1;ratioP1;P1;durP2;ratioP2;P2;SDS_P1;SDS_P2;PMS_P1;PMS_P2;Temp;Humidity;BMP_temperature;BMP_pressure;BME280_temperature;BME280_humidity;BME280_pressure;Samples;Min_cycle;Max_cycle;Signal;HPM_P1;HPM_P2
2024/01/29 00:00:10;;;;;;;4.50;1.83;;;;;;;5.01;57.78;102007.66;5052915;28;20864;-83
2024/01/29 00:02:39;;;;;;;3.25;1.55;;;;;;;5.06;57.65;102003.50;5055328;28;20096;-83
2024/01/29 00:05:05;;;;;;;2.85;1.30;;;;;;;5.06;57.63;102003.50;5053526;28;20515;-83
2024/01/29 00:07:32;;;;;;;1.00;0.93;;;;;;;5.06;57.62;101993.09;5033158;28;20701;-83
2024/01/29 00:09:59;;;;;;;2.75;1.27;;;;;;;5.05;57.58;101997.44;5065871;28;20049;-84
2024/01/29 00:12:26;;;;;;;3.05;2.05;;;;;;;5.10;57.48;101993.28;5038930;28;20094;-81
2024/01/29 00:14:52;;;;;;;4.55;1.23;;;;;;;5.09;57.34;101995.84;5034979;28;20084;-81
2024/01/29 00:17:19;;;;;;;1.85;1.20;;;;;;;5.07;57.77;101990.59;5065817;28;20113;-80
2024/01/29 00:19:46;;;;;;;1.30;1.15;;;;;;;5.09;57.48;102001.03;5048400;28;20049;-83
2024/01/29 00:22:12;;;;;;;1.50;1.40;;;;;;;5.09;57.34;101988.03;5035807;28;20109;-82
2024/01/29 00:24:40;;;;;;;2.58;1.17;;;;;;;5.07;57.55;101982.81;5031833;28;20040;-83
2024/01/29 00:27:07;;;;;;;2.25;1.48;;;;;;;5.05;57.67;101986.19;5038406;28;20072;-83
2024/01/29 00:29:34;;;;;;;1.52;1.42;;;;;;;5.05;57.52;101981.00;5048297;28;20280;-81
2024/01/29 00:32:00;;;;;;;2.10;1.58;;;;;;;5.08;57.59;101976.75;5075140;28;20082;-83
2024/01/29 00:34:27;;;;;;;2.40;1.27;;;;;;;5.07;57.31;101971.53;5050316;28;20041;-82
2024/01/29 00:36:54;;;;;;;2.67;1.48;;;;;;;5.09;57.45;101968.16;5033900;28;20858;-81
2024/01/29 00:39:20;;;;;;;4.85;1.10;;;;;;;5.03;57.48;101962.78;5034078;28;20044;-82
2024/01/29 00:41:47;;;;;;;2.10;1.40;;;;;;;5.09;57.23;101965.56;5050788;28;20037;-83
2024/01/29 00:44:17;;;;;;;1.70;1.15;;;;;;;5.06;57.33;101962.88;5054067;28;20045;-81
2024/01/29 00:46:43;;;;;;;2.00;1.00;;;;;;;5.06;57.30;101960.28;5055180;28;20558;-82
2024/01/29 00:49:10;;;;;;;1.23;1.08;;;;;;;5.06;57.03;101961.97;5051165;28;20630;-83
2024/01/29 00:51:36;;;;;;;2.15;1.10;;;;;;;5.07;57.08;101958.53;5054342;28;20068;-83
2024/01/29 00:54:03;;;;;;;4.82;1.30;;;;;;;5.07;57.07;101958.53;5071604;28;20060;-81
2024/01/29 00:56:30;;;;;;;2.22;1.20;;;;;;;5.10;57.01;101958.69;5065903;28;20133;-82
2024/01/29 00:58:56;;;;;;;2.92;1.27;;;;;;;5.13;57.11;101953.56;5065011;28;20056;-83
2024/01/29 01:01:23;;;;;;;8.38;2.20;;;;;;;5.09;56.89;101962.97;5040885;28;20041;-82
2024/01/29 01:03:55;;;;;;;1.67;0.88;;;;;;;5.07;57.08;101951.66;5038708;28;20446;-81
2024/01/29 01:06:21;;;;;;;1.35;0.98;;;;;;;5.06;57.13;101955.09;5052251;28;20455;-82
2024/01/29 01:08:49;;;;;;;3.33;0.90;;;;;;;5.03;57.15;101957.59;5045690;28;20509;-82
2024/01/29 01:11:16;;;;;;;1.73;1.02;;;;;;;5.06;56.95;101961.97;5034974;28;20059;-81
2024/01/29 01:13:43;;;;;;;5.13;1.20;;;;;;;5.04;57.35;101955.84;5057159;28;20770;-81
2024/01/29 01:16:09;;;;;;;2.03;1.15;;;;;;;5.02;57.28;101960.09;5035162;28;20048;-83
2024/01/29 01:18:36;;;;;;;2.25;1.10;;;;;;;4.99;57.23;101955.69;5049618;28;20106;-83
2024/01/29 01:21:05;;;;;;;1.33;0.90;;;;;;;4.99;57.42;101963.47;5073085;28;20074;-83
2024/01/29 01:23:31;;;;;;;10.00;2.47;;;;;;;5.03;57.17;101965.38;5045584;28;20040;-82
2024/01/29 01:25:58;;;;;;;1.25;1.10;;;;;;;5.01;57.08;101971.34;5035806;28;20055;-83
2024/01/29 01:28:25;;;;;;;0.90;0.70;;;;;;;5.07;56.85;101962.03;5045078;28;20385;-83
2024/01/29 01:30:51;;;;;;;1.30;1.20;;;;;;;5.06;56.72;101960.28;5035747;28;20049;-83
2024/01/29 01:33:18;;;;;;;1.52;0.98;;;;;;;5.06;56.93;101969.75;5065837;28;20049;-83
2024/01/29 01:35:44;;;;;;;0.85;0.57;;;;;;;5.07;56.83;101961.13;5051674;28;20075;-82
2024/01/29 01:38:11;;;;;;;1.40;1.00;;;;;;;5.20;56.35;101967.66;5036710;28;20052;-80
2024/01/29 01:40:37;;;;;;;0.98;0.80;;;;;;;5.18;56.64;101969.31;5028262;28;20048;-82
2024/01/29 01:43:24;;;;;;;1.40;0.88;;;;;;;5.13;56.49;101957.03;5034129;28;20049;-82
2024/01/29 01:46:06;;;;;;;1.38;0.90;;;;;;;5.14;56.56;101958.81;5049553;28;20076;-82
2024/01/29 01:48:35;;;;;;;7.50;1.88;;;;;;;5.11;56.45;101955.22;5061137;28;20045;-82
2024/01/29 01:51:02;;;;;;;1.60;0.75;;;;;;;5.12;56.30;101955.31;5031416;28;20059;-83
2024/01/29 01:53:34;;;;;;;1.55;1.33;;;;;;;5.07;56.50;101966.34;5036688;28;20404;-83
2024/01/29 01:56:01;;;;;;;2.60;1.42;;;;;;;5.02;56.41;101958.41;5049898;28;20761;-83
2024/01/29 01:58:34;;;;;;;2.70;0.88;;;;;;;5.00;56.37;101948.81;5078197;28;20810;-82
2024/01/29 02:01:01;;;;;;;1.90;1.42;;;;;;;5.07;56.00;101962.03;5034051;28;20063;-82
2024/01/29 02:03:28;;;;;;;1.27;1.00;;;;;;;5.02;56.20;101957.50;5032269;28;20048;-82
2024/01/29 02:05:56;;;;;;;0.95;0.85;;;;;;;4.96;56.23;101951.25;5033706;28;20890;-83
2024/01/29 02:08:23;;;;;;;2.15;1.25;;;;;;;5.04;55.16;101948.94;5032492;28;20576;-83
2024/01/29 02:10:51;;;;;;;3.50;1.52;;;;;;;5.10;55.27;101943.09;5050319;28;20076;-81
2024/01/29 02:13:18;;;;;;;1.10;0.75;;;;;;;5.06;55.12;101939.50;5033504;28;20052;-82
2024/01/29 02:15:44;;;;;;;2.05;0.65;;;;;;;5.10;54.93;101928.41;5042706;28;20044;-82
2024/01/29 02:18:10;;;;;;;0.70;0.70;;;;;;;5.16;54.58;101921.66;5041834;28;20057;-82
2024/01/29 02:20:36;;;;;;;0.55;0.55;;;;;;;5.21;54.28;101922.69;5024370;28;20051;-82
2024/01/29 02:23:04;;;;;;;1.40;1.27;;;;;;;5.30;54.12;101920.41;5016461;28;20042;-82
2024/01/29 02:25:31;;;;;;;0.75;0.73;;;;;;;5.32;53.80;101907.44;5034201;28;20147;-82
2024/01/29 02:27:57;;;;;;;1.75;1.02;;;;;;;5.33;53.74;101909.22;5017471;28;20076;-81
2024/01/29 02:30:24;;;;;;;1.20;0.95;;;;;;;5.39;53.19;101912.03;5044504;28;20060;-82
2024/01/29 02:32:51;;;;;;;1.85;0.90;;;;;;;5.40;53.23;101906.88;5029057;28;20538;-83
2024/01/29 02:35:17;;;;;;;1.55;1.23;;;;;;;5.43;52.90;101913.88;5013583;28;20076;-83
2024/01/29 02:37:44;;;;;;;0.52;0.52;;;;;;;5.44;52.95;101908.75;5011238;28;20041;-83
2024/01/29 02:40:11;;;;;;;0.63;0.60;;;;;;;5.38;52.96;101908.53;5018642;28;20601;-82
2024/01/29 02:42:38;;;;;;;3.08;0.80;;;;;;;5.34;53.35;101922.25;5011709;28;20053;-83
2024/01/29 02:45:06;;;;;;;1.40;0.85;;;;;;;5.30;53.51;101916.06;5050270;28;20152;-80
2024/01/29 02:47:33;;;;;;;2.72;0.73;;;;;;;5.30;53.26;101925.59;5012389;28;20216;-83
2024/01/29 02:49:59;;;;;;;2.00;1.08;;;;;;;5.27;53.21;101928.09;5011102;28;20563;-81
2024/01/29 02:52:26;;;;;;;1.63;0.60;;;;;;;5.21;53.30;101923.56;5035627;28;20496;-83
2024/01/29 02:54:52;;;;;;;1.25;0.70;;;;;;;5.25;53.45;101927.16;5012698;28;20056;-82
2024/01/29 02:57:23;;;;;;;2.72;0.93;;;;;;;5.18;53.55;101926.06;5059016;28;20453;-84
2024/01/29 02:59:53;;;;;;;1.92;0.88;;;;;;;5.17;53.77;101931.22;5029290;28;20041;-81
2024/01/29 03:02:20;;;;;;;2.65;0.80;;;;;;;5.07;53.96;101928.31;5013127;28;20048;-83
2024/01/29 03:04:49;;;;;;;1.38;0.82;;;;;;;5.06;53.81;101936.00;5029417;28;20041;-83
2024/01/29 03:07:18;;;;;;;0.77;0.60;;;;;;;5.03;54.08;101934.22;5028973;28;20053;-84
2024/01/29 03:09:45;;;;;;;1.08;0.88;;;;;;;5.00;54.14;101928.03;5057142;28;20072;-81
2024/01/29 03:12:11;;;;;;;1.63;1.17;;;;;;;5.02;53.90;101927.25;5031423;28;20045;-82
2024/01/29 03:14:39;;;;;;;5.38;0.90;;;;;;;5.02;53.95;101919.47;5014791;28;20052;-81
2024/01/29 03:17:06;;;;;;;1.10;0.80;;;;;;;5.06;53.62;101920.44;5027305;28;20055;-82
2024/01/29 03:19:32;;;;;;;1.95;1.42;;;;;;;5.06;53.63;101923.94;5009084;28;20049;-82
2024/01/29 03:21:59;;;;;;;4.88;1.13;;;;;;;4.89;54.13;101919.84;5030461;28;20073;-83
2024/01/29 03:24:25;;;;;;;2.40;0.70;;;;;;;4.80;54.47;101928.22;5013840;28;20045;-83
2024/01/29 03:26:53;;;;;;;1.63;0.70;;;;;;;4.75;54.61;101929.78;5027389;28;20085;-83
2024/01/29 03:29:19;;;;;;;1.63;0.57;;;;;;;4.71;54.69;101933.09;5044663;28;20520;-82
2024/01/29 03:31:46;;;;;;;1.80;0.77;;;;;;;4.64;54.84;101931.97;5033970;28;20072;-82
2024/01/29 03:34:13;;;;;;;0.95;0.85;;;;;;;4.73;54.33;101937.50;5047416;28;20103;-83
2024/01/29 03:36:39;;;;;;;2.55;0.60;;;;;;;4.87;53.73;101932.78;5032817;28;20037;-81
2024/01/29 03:39:06;;;;;;;1.55;0.65;;;;;;;4.87;53.73;101939.69;5017615;28;20149;-82
2024/01/29 03:41:34;;;;;;;1.98;0.98;;;;;;;4.83;53.90;101928.31;5012337;28;20056;-82
2024/01/29 03:44:01;;;;;;;3.55;1.20;;;;;;;4.82;53.84;101930.88;5067738;28;20059;-82
2024/01/29 03:46:27;;;;;;;2.88;2.10;;;;;;;4.85;53.71;101930.97;5046785;28;20782;-81
2024/01/29 03:48:54;;;;;;;0.85;0.52;;;;;;;4.91;53.18;101926.88;5030626;28;20040;-82
2024/01/29 03:51:20;;;;;;;0.95;0.85;;;;;;;4.88;53.52;101926.78;5047976;28;20044;-82
2024/01/29 03:53:47;;;;;;;2.60;0.68;;;;;;;4.92;53.12;101935.56;5048064;28;20140;-82
2024/01/29 03:56:15;;;;;;;1.65;0.50;;;;;;;4.88;53.62;101951.84;5048889;28;20093;-82
2024/01/29 03:58:41;;;;;;;0.60;0.60;;;;;;;4.86;53.56;101945.72;5064066;28;20057;-80
2024/01/29 04:01:08;;;;;;;2.65;0.65;;;;;;;4.78;53.87;101948.03;5032494;28;20055;-81
2024/01/29 04:03:34;;;;;;;1.75;0.88;;;;;;;4.73;53.94;101957.34;5031954;28;20686;-81
2024/01/29 04:06:02;;;;;;;2.33;0.55;;;;;;;4.69;54.20;101955.47;5010855;28;20037;-81
2024/01/29 04:08:28;;;;;;;0.50;0.50;;;;;;;4.67;53.80;101951.94;5013470;28;20068;-82
2024/01/29 04:10:55;;;;;;;1.50;0.80;;;;;;;4.67;54.05;101949.34;5013206;28;20059;-81
2024/01/29 04:13:21;;;;;;;1.38;1.00;;;;;;;4.67;53.89;101955.44;5045796;28;20048;-82
2024/01/29 04:15:48;;;;;;;2.45;0.90;;;;;;;4.75;53.62;101947.94;5030755;28;20064;-83
2024/01/29 04:18:15;;;;;;;3.60;0.77;;;;;;;4.74;53.78;101951.34;5048106;28;20199;-82
2024/01/29 04:20:41;;;;;;;0.47;0.43;;;;;;;4.69;53.68;101945.09;5046454;28;20052;-82
2024/01/29 04:23:08;;;;;;;0.68;0.68;;;;;;;4.68;53.76;101948.53;5010816;28;20052;-83
2024/01/29 04:25:35;;;;;;;2.40;0.75;;;;;;;4.61;54.15;101947.41;5038582;28;20224;-82
2024/01/29 04:28:01;;;;;;;1.20;0.70;;;;;;;4.55;54.17;101942.00;5032001;28;20063;-83
2024/01/29 04:30:29;;;;;;;1.05;0.40;;;;;;;4.54;54.18;101948.91;5031834;28;20103;-83
2024/01/29 04:32:56;;;;;;;1.40;0.98;;;;;;;4.56;54.03;101931.72;5015425;28;20110;-83
2024/01/29 04:35:22;;;;;;;1.15;0.40;;;;;;;4.53;54.43;101926.41;5018222;28;20107;-83
2024/01/29 04:37:49;;;;;;;1.42;0.80;;;;;;;4.57;53.67;101919.63;5027805;28;20450;-83
2024/01/29 04:40:16;;;;;;;1.58;0.50;;;;;;;4.63;53.92;101922.44;5028683;28;20159;-83
2024/01/29 04:42:42;;;;;;;1.27;0.80;;;;;;;4.80;52.99;101923.91;5025772;28;20041;-83
2024/01/29 04:45:09;;;;;;;1.65;0.82;;;;;;;4.86;52.65;101928.41;5029644;28;20053;-83
2024/01/29 04:47:36;;;;;;;0.60;0.60;;;;;;;4.82;52.95;101923.09;5045114;28;20094;-83
2024/01/29 04:50:03;;;;;;;0.95;0.68;;;;;;;4.78;52.86;101924.69;5048766;28;20067;-82
2024/01/29 04:52:29;;;;;;;0.70;0.70;;;;;;;4.80;52.67;101931.69;5032448;28;20098;-83
2024/01/29 04:54:56;;;;;;;0.60;0.60;;;;;;;4.85;52.53;101929.28;5044099;28;20048;-82
2024/01/29 04:57:22;;;;;;;1.90;0.85;;;;;;;4.80;53.00;101928.22;5045291;28;20047;-83
2024/01/29 04:59:49;;;;;;;0.80;0.70;;;;;;;4.82;53.08;101933.47;5018613;28;20037;-82
2024/01/29 05:02:16;;;;;;;1.55;0.60;;;;;;;4.86;52.35;101935.34;5065382;28;20445;-83
2024/01/29 05:04:45;;;;;;;1.42;0.65;;;;;;;4.87;52.45;101931.91;5035880;28;20033;-82
2024/01/29 05:07:12;;;;;;;2.42;1.38;;;;;;;4.87;52.69;101932.78;5031236;28;20411;-82
2024/01/29 05:09:39;;;;;;;4.38;2.50;;;;;;;4.94;52.51;101936.47;5030727;28;20442;-82
2024/01/29 05:12:06;;;;;;;2.90;1.60;;;;;;;4.90;52.53;101942.38;5064051;28;20041;-83
2024/01/29 05:14:33;;;;;;;2.13;1.50;;;;;;;4.87;52.58;101934.50;5063282;28;20037;-82
2024/01/29 05:17:02;;;;;;;2.10;1.10;;;;;;;4.91;52.36;101926.00;5032116;28;20128;-83
2024/01/29 05:19:29;;;;;;;1.50;0.95;;;;;;;4.86;52.69;101936.19;5031688;28;20048;-84
2024/01/29 05:21:56;;;;;;;1.55;1.00;;;;;;;4.86;52.74;101937.94;5021278;28;20052;-83
2024/01/29 05:24:24;;;;;;;1.15;1.13;;;;;;;4.80;53.05;101933.41;5067314;28;20045;-81
2024/01/29 05:26:50;;;;;;;0.85;0.82;;;;;;;4.73;53.26;101942.69;5034134;28;20052;-83
2024/01/29 05:29:17;;;;;;;1.08;0.60;;;;;;;4.80;53.54;101948.97;5035045;28;20048;-83
2024/01/29 05:31:42;;;;;;;2.63;1.00;;;;;;;4.75;53.59;101942.75;5031493;28;20136;-82
2024/01/29 05:34:09;;;;;;;0.95;0.70;;;;;;;4.73;53.82;101941.78;5048841;28;20127;-83
2024/01/29 05:36:35;;;;;;;0.98;0.60;;;;;;;4.70;53.98;101945.16;5050755;28;20052;-82
2024/01/29 05:39:02;;;;;;;1.20;0.75;;;;;;;4.63;54.34;101943.19;5035641;28;20128;-83
2024/01/29 05:41:28;;;;;;;3.88;0.80;;;;;;;4.64;54.50;101938.06;5050198;28;20045;-83
2024/01/29 05:44:00;;;;;;;0.68;0.68;;;;;;;4.57;54.90;101933.44;5051246;28;20045;-82
2024/01/29 05:46:27;;;;;;;1.70;0.50;;;;;;;4.53;55.24;101935.91;5033649;28;20049;-82
2024/01/29 05:48:53;;;;;;;1.38;0.70;;;;;;;4.54;55.31;101938.53;5031083;28;20372;-81
2024/01/29 05:51:23;;;;;;;9.95;1.45;;;;;;;4.50;55.43;101926.28;5049840;28;20052;-81
2024/01/29 05:53:49;;;;;;;0.77;0.70;;;;;;;4.52;55.58;101935.00;5050447;28;20422;-81
2024/01/29 05:56:21;;;;;;;1.20;0.90;;;;;;;4.44;55.96;101939.91;5052131;28;20059;-83
2024/01/29 05:58:49;;;;;;;1.17;0.60;;;;;;;4.40;56.22;101931.97;5075526;28;20044;-83
2024/01/29 06:01:19;;;;;;;3.47;0.95;;;;;;;4.42;55.99;101930.28;5075209;28;20063;-82
2024/01/29 06:03:45;;;;;;;1.85;0.60;;;;;;;4.43;56.12;101929.47;5033171;28;20032;-82
2024/01/29 06:06:12;;;;;;;1.05;0.40;;;;;;;4.42;56.30;101938.06;5066099;28;20058;-82
2024/01/29 06:08:41;;;;;;;2.75;0.88;;;;;;;4.36;56.09;101932.69;5031608;28;20056;-82
2024/01/29 06:11:08;;;;;;;2.45;1.30;;;;;;;4.34;56.37;101939.50;5044709;28;20051;-83
2024/01/29 06:13:37;;;;;;;3.08;0.90;;;;;;;4.34;56.76;101939.50;5060031;28;20053;-81
2024/01/29 06:16:04;;;;;;;2.75;1.35;;;;;;;4.32;56.50;101942.03;5062161;28;20048;-82
2024/01/29 06:18:30;;;;;;;1.63;0.88;;;;;;;4.34;56.64;101950.78;5029556;28;20044;-84
2024/01/29 06:20:57;;;;;;;2.10;1.23;;;;;;;4.29;56.75;101940.22;5026828;28;20135;-83
2024/01/29 06:23:24;;;;;;;2.58;0.88;;;;;;;4.35;56.71;101943.88;5031170;28;20530;-83
2024/01/29 06:25:50;;;;;;;1.77;0.70;;;;;;;4.28;56.94;101948.81;5030947;28;20475;-82
2024/01/29 06:28:20;;;;;;;0.70;0.70;;;;;;;4.25;56.85;101950.41;5058983;28;20399;-82
2024/01/29 06:30:47;;;;;;;3.70;0.75;;;;;;;4.21;57.56;101952.03;5079037;28;20032;-82
2024/01/29 06:33:13;;;;;;;1.77;1.08;;;;;;;4.23;57.53;101952.06;5049469;28;20044;-83
2024/01/29 06:35:40;;;;;;;1.08;0.60;;;;;;;4.20;57.45;101957.13;5063531;28;20409;-81
2024/01/29 06:38:07;;;;;;;1.00;0.90;;;;;;;4.16;57.61;101956.16;5047378;28;20138;-80
2024/01/29 06:40:34;;;;;;;0.70;0.70;;;;;;;4.10;58.04;101963.69;5067416;28;20109;-81
2024/01/29 06:43:00;;;;;;;5.38;1.38;;;;;;;4.08;57.80;101962.72;5051129;28;20041;-81
2024/01/29 06:45:28;;;;;;;1.35;0.75;;;;;;;4.01;58.18;101959.00;5087457;28;20048;-82
2024/01/29 06:47:56;;;;;;;0.82;0.52;;;;;;;4.01;58.17;101959.00;5034491;28;20054;-82
2024/01/29 06:50:22;;;;;;;3.13;0.63;;;;;;;3.98;58.51;101964.97;5030745;28;20570;-81
2024/01/29 06:52:49;;;;;;;1.95;0.65;;;;;;;3.93;58.53;101966.47;5032218;28;20152;-83
2024/01/29 06:55:17;;;;;;;2.38;0.95;;;;;;;3.87;58.88;101975.72;5048649;28;20098;-82
2024/01/29 06:57:44;;;;;;;0.73;0.70;;;;;;;3.88;58.77;101967.13;5043926;28;20422;-84
2024/01/29 07:00:11;;;;;;;1.58;0.90;;;;;;;3.93;58.88;101982.03;5032591;28;20438;-82
2024/01/29 07:02:39;;;;;;;1.17;0.82;;;;;;;3.93;58.87;101973.38;5083135;28;20536;-82
2024/01/29 07:05:06;;;;;;;4.13;1.75;;;;;;;4.02;58.60;101984.09;5052334;28;20044;-81
2024/01/29 07:07:33;;;;;;;1.20;1.02;;;;;;;4.01;58.44;101984.91;5056748;28;20085;-80
2024/01/29 07:09:59;;;;;;;2.42;1.35;;;;;;;4.04;58.62;101976.38;5039215;28;20079;-80
2024/01/29 07:12:26;;;;;;;1.33;1.13;;;;;;;4.08;58.59;101978.25;5036178;28;20090;-79
2024/01/29 07:14:53;;;;;;;1.52;1.20;;;;;;;4.10;58.75;101976.63;5031574;28;20064;-81
2024/01/29 07:17:22;;;;;;;2.58;0.90;;;;;;;4.10;58.95;101977.50;5037710;28;20564;-83
2024/01/29 07:19:51;;;;;;;5.05;1.58;;;;;;;4.09;59.13;101978.34;5038065;28;20048;-82
2024/01/29 07:22:19;;;;;;;2.38;0.95;;;;;;;4.12;59.02;101991.41;5031410;28;20053;-80
2024/01/29 07:24:48;;;;;;;2.42;0.98;;;;;;;4.11;59.02;101989.66;5061951;28;20045;-83
2024/01/29 07:27:17;;;;;;;1.67;1.58;;;;;;;4.14;59.25;101994.06;5068400;28;20044;-83
2024/01/29 07:29:43;;;;;;;2.72;0.90;;;;;;;4.12;58.98;101991.41;5038169;28;20518;-80
2024/01/29 07:32:10;;;;;;;4.20;1.73;;;;;;;4.16;59.41;101983.75;5040354;28;20052;-81
2024/01/29 07:34:37;;;;;;;1.92;1.00;;;;;;;4.19;59.45;101991.66;5040153;28;20123;-82
2024/01/29 07:37:04;;;;;;;3.22;1.20;;;;;;;4.19;59.03;101991.66;5061016;28;20044;-81
2024/01/29 07:39:30;;;;;;;3.75;1.65;;;;;;;4.21;59.39;101990.00;5069016;28;20472;-81
2024/01/29 07:41:57;;;;;;;0.90;0.90;;;;;;;4.26;59.36;101997.16;5036515;28;20064;-82
2024/01/29 07:44:23;;;;;;;2.95;1.30;;;;;;;4.34;59.19;101986.16;5051890;28;20094;-83
2024/01/29 07:46:50;;;;;;;2.03;1.13;;;;;;;4.37;59.27;101984.59;5050827;28;20338;-83
2024/01/29 07:49:16;;;;;;;2.15;1.27;;;;;;;4.40;59.25;101986.41;5053904;28;20045;-81
2024/01/29 07:51:43;;;;;;;2.67;1.08;;;;;;;4.43;59.04;101984.81;5069904;28;20104;-82
2024/01/29 07:54:09;;;;;;;3.35;1.10;;;;;;;4.49;59.23;101983.28;5050459;28;20048;-82
2024/01/29 07:56:39;;;;;;;2.80;1.30;;;;;;;4.55;58.98;101989.59;5061960;28;20129;-82
2024/01/29 07:59:06;;;;;;;5.97;1.67;;;;;;;4.62;59.10;101983.78;5066216;28;20049;-83
2024/01/29 08:01:32;;;;;;;2.47;0.85;;;;;;;4.73;58.84;101988.50;5052466;28;20055;-81
2024/01/29 08:04:01;;;;;;;2.70;1.40;;;;;;;4.79;58.53;101981.81;5051552;28;20047;-83
2024/01/29 08:06:28;;;;;;;1.75;1.05;;;;;;;4.88;58.39;101983.84;5047643;28;20391;-82
2024/01/29 08:08:55;;;;;;;1.88;1.25;;;;;;;4.94;58.39;101983.19;5037376;28;20052;-82
2024/01/29 08:11:24;;;;;;;1.70;1.17;;;;;;;4.98;58.44;101985.09;5067523;28;20407;-83
2024/01/29 08:13:51;;;;;;;4.05;1.45;;;;;;;5.03;58.12;101988.72;5046510;28;20127;-82
2024/01/29 08:16:17;;;;;;;2.67;1.00;;;;;;;5.06;57.81;101986.22;5053682;28;20733;-82
2024/01/29 08:18:44;;;;;;;3.03;1.00;;;;;;;5.09;58.02;101988.91;5031262;28;20196;-82
2024/01/29 08:21:11;;;;;;;2.50;1.30;;;;;;;5.09;57.87;101988.91;5052557;28;20128;-81
2024/01/29 08:23:37;;;;;;;4.38;1.75;;;;;;;5.11;58.18;101989.88;5069819;28;20040;-80
2024/01/29 08:26:04;;;;;;;2.33;1.00;;;;;;;5.14;58.07;102002.06;5032679;28;20734;-81
2024/01/29 08:28:30;;;;;;;3.78;1.30;;;;;;;5.14;57.90;101997.75;5068704;28;20055;-81
2024/01/29 08:30:59;;;;;;;2.53;1.25;;;;;;;5.17;58.06;101994.38;5042232;28;20056;-83
2024/01/29 08:33:28;;;;;;;3.35;1.17;;;;;;;5.17;58.10;101994.38;5064749;28;20053;-83
2024/01/29 08:35:56;;;;;;;3.50;1.58;;;;;;;5.17;58.23;102004.75;5064030;28;20052;-81
2024/01/29 08:38:25;;;;;;;2.78;1.38;;;;;;;5.17;58.44;101999.56;5052806;28;20040;-83
2024/01/29 08:40:54;;;;;;;5.38;2.97;;;;;;;5.18;58.40;102000.47;5035547;28;20045;-83
2024/01/29 08:43:21;;;;;;;1.42;1.25;;;;;;;5.18;58.55;101996.16;5051187;28;20045;-82
2024/01/29 08:45:50;;;;;;;3.00;1.20;;;;;;;5.19;58.74;101987.53;5067670;28;20046;-83
2024/01/29 08:48:17;;;;;;;3.20;0.98;;;;;;;5.22;58.35;101985.03;5030078;28;20061;-82
2024/01/29 08:50:43;;;;;;;1.80;1.05;;;;;;;5.25;58.68;101987.75;5034781;28;20063;-81
2024/01/29 08:53:10;;;;;;;1.73;1.63;;;;;;;5.33;58.61;101990.59;5056038;28;20040;-82
2024/01/29 08:55:36;;;;;;;1.10;1.00;;;;;;;5.41;58.40;101980.47;5051035;28;20045;-82
2024/01/29 08:58:04;;;;;;;4.05;0.98;;;;;;;5.51;58.08;101981.66;5035778;28;20041;-83
2024/01/29 09:00:32;;;;;;;2.03;1.35;;;;;;;5.59;57.91;101980.19;5054194;28;20048;-82
2024/01/29 09:02:58;;;;;;;2.63;1.38;;;;;;;5.65;57.77;101980.41;5053813;28;20041;-81
2024/01/29 09:05:25;;;;;;;4.32;1.63;;;;;;;5.73;57.58;101973.72;5038164;28;20050;-82
2024/01/29 09:07:52;;;;;;;2.90;1.30;;;;;;;5.79;57.52;101966.16;5036754;28;20043;-82
2024/01/29 09:10:19;;;;;;;3.55;1.40;;;;;;;5.82;57.65;101967.97;5047720;28;20095;-81
2024/01/29 09:12:45;;;;;;;2.03;1.35;;;;;;;5.86;57.39;101974.16;5063585;28;20067;-83
2024/01/29 09:15:12;;;;;;;1.80;1.50;;;;;;;5.88;57.38;101968.16;5051187;28;21363;-83
2024/01/29 09:17:40;;;;;;;3.67;1.50;;;;;;;5.93;57.58;101968.28;5069248;28;20055;-82
2024/01/29 09:20:08;;;;;;;2.95;1.40;;;;;;;5.97;57.59;101978.84;5053249;28;20086;-82
2024/01/29 09:22:35;;;;;;;2.50;1.30;;;;;;;6.06;57.37;101980.88;5051286;28;20057;-82
2024/01/29 09:25:02;;;;;;;5.40;1.50;;;;;;;6.13;57.38;101977.63;5032628;28;20505;-83
2024/01/29 09:27:29;;;;;;;2.05;1.83;;;;;;;6.18;57.31;101975.19;5035452;28;20060;-82
2024/01/29 09:29:56;;;;;;;2.78;1.38;;;;;;;6.24;56.78;101974.47;5068680;28;20055;-83
2024/01/29 09:32:22;;;;;;;4.75;1.63;;;;;;;6.32;56.89;101975.56;5066297;28;20590;-81
2024/01/29 09:34:49;;;;;;;1.23;1.13;;;;;;;6.37;56.90;101973.13;5068339;28;20495;-82
2024/01/29 09:37:17;;;;;;;4.18;2.20;;;;;;;6.43;56.90;101975.91;5051278;28;20583;-81
2024/01/29 09:39:43;;;;;;;2.08;1.15;;;;;;;6.49;56.69;101972.59;5043550;28;20618;-81
2024/01/29 09:42:19;;;;;;;3.30;1.45;;;;;;;6.54;56.67;101971.00;5051163;28;20040;-83
2024/01/29 09:44:48;;;;;;;3.70;1.58;;;;;;;6.58;56.79;101968.56;5070842;28;20412;-83
2024/01/29 09:47:15;;;;;;;1.33;1.23;;;;;;;6.64;56.20;101972.19;5067119;28;20056;-82
2024/01/29 09:49:42;;;;;;;5.80;1.70;;;;;;;6.69;56.38;101968.84;5067116;28;20394;-81
2024/01/29 09:52:12;;;;;;;11.00;1.60;;;;;;;6.73;56.23;101977.63;5031967;28;20105;-82
2024/01/29 09:54:40;;;;;;;1.63;1.35;;;;;;;6.79;56.62;101978.69;5050059;28;20586;-82
2024/01/29 09:57:10;;;;;;;1.50;1.27;;;;;;;6.83;56.57;101982.25;5067267;28;20048;-83
2024/01/29 09:59:37;;;;;;;1.98;1.83;;;;;;;6.90;56.04;101981.56;5033493;28;20094;-81
2024/01/29 10:02:04;;;;;;;2.53;1.20;;;;;;;6.92;56.36;101984.22;5051779;28;20041;-83
2024/01/29 10:04:30;;;;;;;1.50;1.40;;;;;;;6.93;56.05;101992.06;5025675;28;20056;-82
2024/01/29 10:06:58;;;;;;;1.75;1.40;;;;;;;6.94;56.13;101996.44;5042947;28;20044;-83
2024/01/29 10:09:27;;;;;;;2.50;1.67;;;;;;;6.99;56.39;101985.25;5050740;28;20056;-83
2024/01/29 10:11:53;;;;;;;1.83;1.42;;;;;;;7.01;56.68;101983.59;5075326;28;20128;-83
2024/01/29 10:14:20;;;;;;;2.08;1.10;;;;;;;7.08;56.44;101981.19;5064254;28;20047;-83
2024/01/29 10:16:48;;;;;;;2.10;1.40;;;;;;;7.09;56.67;101988.19;5081218;28;20219;-82
2024/01/29 10:19:15;;;;;;;1.52;1.42;;;;;;;7.16;56.19;101997.03;5050139;28;20044;-83
2024/01/29 10:21:43;;;;;;;1.65;1.45;;;;;;;7.17;56.44;102005.72;5031154;28;20068;-83
2024/01/29 10:24:14;;;;;;;1.75;1.58;;;;;;;7.21;56.60;102004.94;5033981;28;20040;-80
2024/01/29 10:26:45;;;;;;;2.10;1.60;;;;;;;7.19;56.51;102011.88;5032580;28;20068;-81
2024/01/29 10:29:15;;;;;;;2.28;1.48;;;;;;;7.24;56.31;102012.88;5031181;28;20558;-79
2024/01/29 10:31:42;;;;;;;1.80;1.60;;;;;;;7.32;56.22;102013.94;5046173;28;20053;-81
2024/01/29 10:34:09;;;;;;;3.65;1.55;;;;;;;7.34;56.51;102007.06;5040330;28;20041;-81
2024/01/29 10:36:39;;;;;;;3.38;1.60;;;;;;;7.39;56.25;102007.16;5046931;28;20044;-80
2024/01/29 10:39:08;;;;;;;1.40;1.27;;;;;;;7.47;56.27;102003.06;5050639;28;20041;-80
2024/01/29 10:41:36;;;;;;;1.60;1.15;;;;;;;7.53;56.04;102003.19;5049736;28;20040;-79
2024/01/29 10:44:05;;;;;;;2.78;1.60;;;;;;;7.56;56.27;101999.78;5049250;28;20044;-82
2024/01/29 10:46:37;;;;;;;2.80;1.70;;;;;;;7.65;56.30;101999.13;5047584;28;20136;-80
2024/01/29 10:49:03;;;;;;;3.60;2.17;;;;;;;7.74;55.95;101995.03;5049563;28;20048;-81
2024/01/29 10:51:33;;;;;;;2.35;1.55;;;;;;;7.82;55.81;101984.78;5079059;28;20040;-80
2024/01/29 10:54:00;;;;;;;4.05;1.30;;;;;;;7.86;55.67;101983.13;5050382;28;20458;-82
2024/01/29 10:56:28;;;;;;;1.80;1.23;;;;;;;7.92;55.43;101993.72;5049984;28;20044;-80
2024/01/29 10:58:58;;;;;;;3.58;1.25;;;;;;;7.92;55.95;101994.56;5066733;28;20044;-80
2024/01/29 11:01:25;;;;;;;1.65;1.38;;;;;;;7.99;55.87;101997.34;5031063;28;20510;-83
2024/01/29 11:03:53;;;;;;;3.30;2.13;;;;;;;8.05;56.04;102000.09;5050665;28;20051;-80
2024/01/29 11:06:43;;;;;;;3.92;1.33;;;;;;;8.05;55.78;102000.97;5030168;28;20415;-82
2024/01/29 11:09:14;;;;;;;1.85;1.58;;;;;;;8.09;56.25;102001.91;5048193;28;20157;-82
2024/01/29 11:11:46;;;;;;;2.20;1.65;;;;;;;8.07;56.30;102003.59;5031708;28;20053;-81
2024/01/29 11:14:13;;;;;;;3.58;1.33;;;;;;;8.14;55.97;102000.31;5045625;28;20064;-81
2024/01/29 11:16:40;;;;;;;5.05;1.80;;;;;;;8.20;55.81;102000.44;5027637;28;20056;-80
2024/01/29 11:19:07;;;;;;;2.28;1.50;;;;;;;8.24;55.92;101999.66;5066012;28;20668;-80
2024/01/29 11:21:33;;;;;;;3.00;1.52;;;;;;;8.27;56.16;102007.53;5062797;28;20114;-82
2024/01/29 11:24:00;;;;;;;2.08;1.33;;;;;;;8.38;56.02;102002.59;5051446;28;20048;-81
2024/01/29 11:26:28;;;;;;;2.85;2.08;;;;;;;8.40;56.09;102002.63;5031521;28;20045;-78
2024/01/29 11:29:02;;;;;;;2.15;1.48;;;;;;;8.50;56.09;102003.72;5032637;28;20449;-82
2024/01/29 11:31:45;;;;;;;2.88;1.98;;;;;;;8.52;56.01;102002.03;5065540;28;20419;-82
2024/01/29 11:34:14;;;;;;;5.50;2.08;;;;;;;8.58;55.96;101995.22;5057878;28;20056;-80